Time;durP1;ratioP1;P1;durP2;ratioP2;P2;SDS_P1;SDS_P2;PMS_P1;PMS_P2;Temp;Humidity;BMP_temperature;BMP_pressure;BME280_temperature;BME280_humidity;BME280_pressure;Samples;Min_cycle;Max_cycle;Signal;HPM_P1;HPM_P2
2021/05/24 00:00:50;;;;;;;;;;;;;;;23.21;38.82;100539.95;1737398;82;20162;-75
2021/05/24 00:03:16;;;;;;;;;;;;;;;23.22;38.81;100536.67;1737447;82;20193;-75
2021/05/24 00:05:43;;;;;;;;;;;;;;;23.22;38.67;100533.94;1737530;82;20542;-75
2021/05/24 00:08:10;;;;;;;;;;;;;;;23.20;38.57;100535.52;1737333;82;20142;-75
2021/05/24 00:10:39;;;;;;;;;;;;;;;23.21;38.45;100533.62;1737584;82;20142;-77
2021/05/24 00:13:07;;;;;;;;;;;;;;;23.21;38.31;100526.79;1737497;82;20182;-77
2021/05/24 00:15:37;;;;;;;;;;;;;;;23.21;38.20;100527.65;1737472;82;20122;-75
2021/05/24 00:18:04;;;;;;;;;;;;;;;23.21;38.12;100520.81;1737474;82;20573;-75
2021/05/24 00:20:35;;;;;;;;;;;;;;;23.22;38.09;100524.38;1737375;82;20186;-75
2021/05/24 00:23:03;;;;;;;;;;;;;;;23.20;38.12;100517.77;1737347;82;20547;-76
2021/05/24 00:25:30;;;;;;;;;;;;;;;23.21;38.19;100513.98;1736662;82;20238;-76
2021/05/24 00:28:00;;;;;;;;;;;;;;;23.18;38.23;100510.36;1735748;81;20189;-76
2021/05/24 00:30:32;;;;;;;;;;;;;;;23.18;38.25;100513.09;1737100;81;20538;-75
2021/05/24 00:32:56;;;;;;;;;;;;;;;23.17;38.20;100511.97;1737073;82;20166;-75
2021/05/24 00:35:22;;;;;;;;;;;;;;;23.17;38.22;100515.53;1737244;82;20249;-75
2021/05/24 00:37:49;;;;;;;;;;;;;;;23.14;38.27;100506.44;1737357;82;20250;-75
2021/05/24 00:40:17;;;;;;;;;;;;;;;23.16;38.42;100512.48;1737282;81;20226;-75
2021/05/24 00:42:42;;;;;;;;;;;;;;;23.15;38.41;100526.39;1737504;81;20150;-75
2021/05/24 00:45:10;;;;;;;;;;;;;;;23.12;38.52;100548.21;1737267;81;20217;-75
2021/05/24 00:47:36;;;;;;;;;;;;;;;23.13;38.71;100577.19;1737396;81;20213;-75
2021/05/24 00:50:05;;;;;;;;;;;;;;;23.15;38.61;100587.34;1736320;81;20218;-75
2021/05/24 00:52:30;;;;;;;;;;;;;;;23.16;38.08;100591.73;1737589;81;20162;-75
2021/05/24 00:54:56;;;;;;;;;;;;;;;23.18;37.63;100599.17;1737321;81;20237;-75
2021/05/24 00:57:22;;;;;;;;;;;;;;;23.19;37.75;100598.09;1737513;81;20236;-75
2021/05/24 00:59:48;;;;;;;;;;;;;;;23.20;38.10;100617.51;1737640;81;20177;-75
2021/05/24 01:02:14;;;;;;;;;;;;;;;23.20;38.55;100624.88;1737240;82;20522;-75
2021/05/24 01:04:40;;;;;;;;;;;;;;;23.18;38.55;100625.12;1737113;82;20162;-75
2021/05/24 01:07:08;;;;;;;;;;;;;;;23.15;38.78;100629.69;1737142;82;20202;-77
2021/05/24 01:09:35;;;;;;;;;;;;;;;23.12;38.95;100631.55;1737312;81;20186;-77
2021/05/24 01:12:01;;;;;;;;;;;;;;;23.09;38.97;100632.02;1737471;82;20261;-77
2021/05/24 01:14:27;;;;;;;;;;;;;;;23.06;39.19;100633.02;1737480;82;20166;-77
2021/05/24 01:16:55;;;;;;;;;;;;;;;23.03;39.57;100656.19;1737428;81;20150;-77
2021/05/24 01:19:23;;;;;;;;;;;;;;;23.01;39.61;100654.21;1737303;81;20191;-77
2021/05/24 01:21:49;;;;;;;;;;;;;;;22.99;39.92;100652.27;1737480;81;20173;-77
2021/05/24 01:24:18;;;;;;;;;;;;;;;22.94;40.42;100657.61;1737804;81;20558;-77
2021/05/24 01:26:44;;;;;;;;;;;;;;;22.92;40.74;100669.28;1738147;81;20174;-76
2021/05/24 01:29:11;;;;;;;;;;;;;;;22.90;41.35;100675.52;1737928;82;20594;-75
2021/05/24 01:31:38;;;;;;;;;;;;;;;22.85;41.80;100671.27;1737810;81;20127;-75
2021/05/24 01:34:03;;;;;;;;;;;;;;;22.93;41.55;100669.03;1737676;82;20174;-75
2021/05/24 01:36:30;;;;;;;;;;;;;;;22.76;41.88;100672.97;1737628;81;20209;-75
2021/05/24 01:38:55;;;;;;;;;;;;;;;22.69;42.15;100670.85;1737528;81;20534;-75
2021/05/24 01:41:22;;;;;;;;;;;;;;;22.66;42.51;100667.21;1737668;81;20182;-75
2021/05/24 01:43:47;;;;;;;;;;;;;;;22.57;43.15;100660.41;1737646;82;20138;-75
2021/05/24 01:46:13;;;;;;;;;;;;;;;22.51;43.39;100660.81;1737420;82;20683;-75
2021/05/24 01:48:40;;;;;;;;;;;;;;;22.63;43.39;100654.58;1737431;81;20238;-75
2021/05/24 01:51:07;;;;;;;;;;;;;;;22.42;44.18;100647.73;1737399;81;20265;-75
2021/05/24 01:53:34;;;;;;;;;;;;;;;22.35;44.42;100638.82;1737472;81;20174;-75
2021/05/24 01:55:59;;;;;;;;;;;;;;;22.29;44.76;100626.38;1737448;81;20170;-75
2021/05/24 01:58:27;;;;;;;;;;;;;;;22.26;44.97;100627.39;1737526;82;20245;-75
2021/05/24 02:01:03;;;;;;;;;;;;;;;22.22;45.04;100621.56;1737583;82;20159;-75
2021/05/24 02:03:29;;;;;;;;;;;;;;;22.27;44.94;100611.31;1737441;80;20246;-75
2021/05/24 02:05:54;;;;;;;;;;;;;;;22.41;44.80;100607.86;1737486;81;20232;-75
2021/05/24 02:08:20;;;;;;;;;;;;;;;22.34;45.05;100611.20;1737645;81;20209;-75
2021/05/24 02:10:46;;;;;;;;;;;;;;;22.12;45.67;100603.55;1737597;81;20166;-75
2021/05/24 02:13:12;;;;;;;;;;;;;;;22.06;45.93;100603.06;1737740;81;20253;-75
2021/05/24 02:15:40;;;;;;;;;;;;;;;22.02;46.13;100605.41;1737378;81;20178;-75
2021/05/24 02:18:06;;;;;;;;;;;;;;;21.99;46.48;100610.52;1714815;82;20579;-77
2021/05/24 02:20:34;;;;;;;;;;;;;;;21.96;46.88;100617.78;1737480;81;20154;-77
2021/05/24 02:23:02;;;;;;;;;;;;;;;21.91;47.33;100621.20;1737638;81;20527;-77
2021/05/24 02:25:28;;;;;;;;;;;;;;;21.86;47.54;100623.78;1737504;81;20527;-77
2021/05/24 02:27:55;;;;;;;;;;;;;;;21.81;47.65;100625.00;1737445;81;20210;-77
2021/05/24 02:30:23;;;;;;;;;;;;;;;21.77;47.74;100622.42;1737592;81;20167;-75
2021/05/24 02:32:49;;;;;;;;;;;;;;;21.75;47.90;100634.90;1737430;81;20142;-74
2021/05/24 02:35:17;;;;;;;;;;;;;;;21.74;48.09;100637.86;1737888;82;20538;-77
2021/05/24 02:37:44;;;;;;;;;;;;;;;21.73;48.12;100639.76;1738074;82;20194;-77
2021/05/24 02:40:11;;;;;;;;;;;;;;;21.73;48.23;100626.13;1737815;82;20522;-77
2021/05/24 02:42:37;;;;;;;;;;;;;;;21.75;48.30;100614.98;1737737;82;20530;-77
2021/05/24 02:45:06;;;;;;;;;;;;;;;21.80;48.16;100611.03;1737890;81;20534;-77
2021/05/24 02:47:32;;;;;;;;;;;;;;;21.79;48.32;100601.20;1737938;82;20174;-77
2021/05/24 02:49:59;;;;;;;;;;;;;;;21.84;48.39;100600.52;1736720;82;20266;-77
2021/05/24 02:52:25;;;;;;;;;;;;;;;21.81;48.41;100583.27;1737831;82;20304;-78
2021/05/24 02:54:51;;;;;;;;;;;;;;;21.78;48.44;100566.28;1738033;81;20166;-78
2021/05/24 02:57:17;;;;;;;;;;;;;;;21.74;48.48;100563.72;1737885;81;20687;-78
2021/05/24 02:59:43;;;;;;;;;;;;;;;22.08;47.67;100553.75;1737706;81;20189;-77
2021/05/24 03:02:13;;;;;;;;;;;;;;;22.17;47.45;100562.77;1737414;81;20146;-78
2021/05/24 03:04:38;;;;;;;;;;;;;;;22.17;47.48;100581.86;1736543;81;20566;-77
2021/05/24 03:07:06;;;;;;;;;;;;;;;22.14;47.75;100606.04;1737096;81;20122;-78
2021/05/24 03:09:32;;;;;;;;;;;;;;;22.10;48.00;100610.26;1737760;81;20261;-78
2021/05/24 03:11:58;;;;;;;;;;;;;;;21.58;49.23;100602.52;1737683;81;20162;-78
2021/05/24 03:14:24;;;;;;;;;;;;;;;21.51;49.23;100575.31;1714961;82;20253;-78
2021/05/24 03:16:51;;;;;;;;;;;;;;;21.47;49.40;100567.82;1737534;81;20574;-78
2021/05/24 03:19:19;;;;;;;;;;;;;;;21.44;49.58;100554.67;1737087;81;20555;-76
2021/05/24 03:21:47;;;;;;;;;;;;;;;21.39;49.68;100528.60;1737281;81;20154;-76
2021/05/24 03:24:13;;;;;;;;;;;;;;;21.38;49.66;100515.52;1737403;81;20218;-76
2021/05/24 03:26:39;;;;;;;;;;;;;;;21.33;49.67;100522.72;1737689;81;20174;-76
2021/05/24 03:29:05;;;;;;;;;;;;;;;21.28;49.53;100524.19;1738486;82;20203;-78
2021/05/24 03:31:31;;;;;;;;;;;;;;;21.27;49.45;100525.26;1737676;81;20252;-77
2021/05/24 03:33:58;;;;;;;;;;;;;;;21.27;49.54;100526.62;1737505;81;20234;-75
2021/05/24 03:36:24;;;;;;;;;;;;;;;21.62;48.82;100511.05;1736744;82;20256;-77
2021/05/24 03:38:50;;;;;;;;;;;;;;;21.27;49.26;100523.89;1737002;81;20246;-77
2021/05/24 03:41:17;;;;;;;;;;;;;;;21.15;49.29;100510.72;1736465;82;20202;-78
2021/05/24 03:43:45;;;;;;;;;;;;;;;21.10;49.39;100508.37;1737193;82;20534;-78
2021/05/24 03:46:11;;;;;;;;;;;;;;;21.06;49.49;100511.24;1720084;82;20557;-77
2021/05/24 03:48:37;;;;;;;;;;;;;;;21.01;49.59;100503.75;1734002;82;20205;-78
2021/05/24 03:51:05;;;;;;;;;;;;;;;20.96;49.56;100499.52;1721685;82;20218;-77
2021/05/24 03:53:32;;;;;;;;;;;;;;;20.89;49.65;100494.15;1738198;82;20177;-77
2021/05/24 03:55:59;;;;;;;;;;;;;;;20.84;49.79;100491.77;1737991;82;20206;-76
2021/05/24 03:58:26;;;;;;;;;;;;;;;20.81;49.87;100493.61;1721020;81;20201;-77
2021/05/24 04:00:52;;;;;;;;;;;;;;;20.77;49.99;100482.33;1707514;82;20184;-76
2021/05/24 04:03:18;;;;;;;;;;;;;;;20.76;49.99;100480.67;1706522;84;20164;-76
2021/05/24 04:05:46;;;;;;;;;;;;;;;20.76;50.10;100483.39;1706677;84;20211;-77
2021/05/24 04:08:12;;;;;;;;;;;;;;;20.74;50.17;100482.23;1717540;82;20165;-77
2021/05/24 04:10:46;;;;;;;;;;;;;;;20.71;50.25;100475.90;1706920;84;20208;-77
2021/05/24 04:13:06;;;;;;;;;;;;;;;20.71;50.32;100476.40;1732011;81;20269;-76
2021/05/24 04:15:32;;;;;;;;;;;;;;;20.69;50.42;100474.45;1742933;82;20228;-76
2021/05/24 04:18:01;;;;;;;;;;;;;;;20.67;50.58;100474.67;1741399;82;20249;-76
2021/05/24 04:20:26;;;;;;;;;;;;;;;20.66;50.73;100471.63;1740664;82;20277;-77
2021/05/24 04:22:53;;;;;;;;;;;;;;;20.65;50.83;100482.22;1736711;82;20250;-77
2021/05/24 04:25:19;;;;;;;;;;;;;;;20.63;51.08;100480.27;1721064;82;20247;-76
2021/05/24 04:27:44;;;;;;;;;;;;;;;20.63;51.29;100484.87;1717782;82;20213;-76
2021/05/24 04:30:12;;;;;;;;;;;;;;;20.62;51.28;100480.46;1733095;82;20398;-76
2021/05/24 04:32:38;;;;;;;;;;;;;;;20.61;51.29;100482.89;1706570;82;20161;-76
2021/05/24 04:35:05;;;;;;;;;;;;;;;20.56;51.42;100475.39;1717895;82;20184;-77
2021/05/24 04:37:31;;;;;;;;;;;;;;;20.55;51.57;100476.98;1721879;82;20138;-77
2021/05/24 04:39:58;;;;;;;;;;;;;;;20.50;51.60;100494.81;1712707;81;20202;-77
2021/05/24 04:42:24;;;;;;;;;;;;;;;20.49;51.73;100495.05;1734410;81;20190;-78
2021/05/24 04:44:50;;;;;;;;;;;;;;;20.49;51.85;100488.24;1724602;82;20611;-77
2021/05/24 04:47:18;;;;;;;;;;;;;;;20.48;51.99;100498.80;1742362;81;20210;-77
2021/05/24 04:49:50;;;;;;;;;;;;;;;20.51;51.91;100501.08;1746842;81;20588;-76
2021/05/24 04:52:17;;;;;;;;;;;;;;;20.49;51.53;100489.61;1741817;81;20609;-76
2021/05/24 04:54:43;;;;;;;;;;;;;;;20.47;51.68;100483.50;1741324;81;20256;-76
2021/05/24 04:57:09;;;;;;;;;;;;;;;20.51;51.72;100491.56;1730924;81;20277;-76
2021/05/24 04:59:35;;;;;;;;;;;;;;;20.51;51.80;100486.12;1729497;82;20294;-76
2021/05/24 05:02:01;;;;;;;;;;;;;;;20.62;51.66;100489.98;1729224;81;20251;-76
2021/05/24 05:04:27;;;;;;;;;;;;;;;20.55;51.64;100486.52;1723365;81;20167;-76
2021/05/24 05:06:56;;;;;;;;;;;;;;;20.52;51.79;100500.02;1731397;81;20681;-76
2021/05/24 05:09:22;;;;;;;;;;;;;;;20.49;51.64;100495.88;1718809;81;20253;-76
2021/05/24 05:11:48;;;;;;;;;;;;;;;20.50;51.69;100478.48;1728085;81;20259;-75
2021/05/24 05:14:14;;;;;;;;;;;;;;;20.51;51.59;100476.59;1730408;79;20248;-76
2021/05/24 05:16:42;;;;;;;;;;;;;;;20.54;51.78;100475.33;1699173;81;20313;-76
2021/05/24 05:19:08;;;;;;;;;;;;;;;20.58;51.59;100481.46;1721257;81;20811;-76
2021/05/24 05:21:35;;;;;;;;;;;;;;;20.63;51.30;100478.07;1730813;81;21104;-76
2021/05/24 05:24:01;;;;;;;;;;;;;;;20.66;51.16;100487.95;1729993;80;20257;-76
2021/05/24 05:26:27;;;;;;;;;;;;;;;20.67;51.10;100484.20;1728187;80;20209;-76
2021/05/24 05:28:55;;;;;;;;;;;;;;;20.68;50.91;100480.95;1722265;81;20234;-77
2021/05/24 05:31:21;;;;;;;;;;;;;;;20.68;51.03;100492.67;1726256;81;20274;-76
2021/05/24 05:33:47;;;;;;;;;;;;;;;20.69;51.08;100503.85;1725455;80;20245;-76
2021/05/24 05:36:14;;;;;;;;;;;;;;;20.71;50.75;100504.48;1729952;81;20664;-76
2021/05/24 05:38:41;;;;;;;;;;;;;;;20.68;50.75;100504.91;1705060;81;20626;-75
2021/05/24 05:41:07;;;;;;;;;;;;;;;20.65;50.65;100507.24;1722951;80;20259;-74
2021/05/24 05:43:33;;;;;;;;;;;;;;;20.60;50.42;100508.45;1725288;80;20186;-75
2021/05/24 05:46:00;;;;;;;;;;;;;;;20.57;50.41;100505.63;1728665;81;20735;-75
2021/05/24 05:48:26;;;;;;;;;;;;;;;20.54;50.54;100507.98;1733660;80;20193;-76
2021/05/24 05:50:52;;;;;;;;;;;;;;;20.52;50.53;100506.83;1725329;79;20300;-75
2021/05/24 05:53:18;;;;;;;;;;;;;;;20.59;50.32;100505.42;1721874;80;20213;-76
2021/05/24 05:55:44;;;;;;;;;;;;;;;20.61;50.39;100508.21;1726438;80;20206;-75
2021/05/24 05:58:11;;;;;;;;;;;;;;;20.62;50.36;100500.38;1730960;80;20587;-76
2021/05/24 06:00:42;;;;;;;;;;;;;;;20.62;50.38;100497.66;1705314;81;20177;-76
2021/05/24 06:03:09;;;;;;;;;;;;;;;20.63;50.50;100483.52;1720441;81;20567;-75
2021/05/24 06:05:36;;;;;;;;;;;;;;;20.63;50.50;100484.87;1727327;81;20302;-76
2021/05/24 06:08:05;;;;;;;;;;;;;;;20.59;50.31;100473.59;1726546;80;20237;-76
2021/05/24 06:10:40;;;;;;;;;;;;;;;20.59;50.41;100480.94;1726548;81;20966;-77
2021/05/24 06:13:08;;;;;;;;;;;;;;;20.54;50.33;100474.80;1727429;79;20219;-76
2021/05/24 06:15:34;;;;;;;;;;;;;;;20.50;50.49;100472.22;1727274;80;20254;-75
2021/05/24 06:18:00;;;;;;;;;;;;;;;20.45;50.72;100458.42;1724339;80;20254;-75
2021/05/24 06:20:31;;;;;;;;;;;;;;;20.39;50.64;100456.56;1721100;81;20309;-75
2021/05/24 06:22:58;;;;;;;;;;;;;;;20.38;50.88;100459.82;1707541;80;20267;-76
2021/05/24 06:25:24;;;;;;;;;;;;;;;20.38;51.00;100450.83;1696850;81;20271;-76
2021/05/24 06:27:52;;;;;;;;;;;;;;;20.37;51.00;100451.89;1730835;80;20328;-77
2021/05/24 06:30:20;;;;;;;;;;;;;;;20.36;50.94;100446.98;1697945;81;20262;-77
2021/05/24 06:32:50;;;;;;;;;;;;;;;20.38;50.84;100453.02;1723392;81;20341;-76
2021/05/24 06:35:21;;;;;;;;;;;;;;;20.38;50.95;100444.86;1695953;81;20431;-75
2021/05/24 06:37:48;;;;;;;;;;;;;;;20.41;50.79;100446.31;1676540;80;20648;-75
2021/05/24 06:40:15;;;;;;;;;;;;;;;20.41;50.88;100450.39;1729226;80;20185;-76
2021/05/24 06:42:48;;;;;;;;;;;;;;;20.42;50.99;100450.70;1727880;79;20246;-76
2021/05/24 06:45:15;;;;;;;;;;;;;;;20.42;51.11;100452.05;1728509;80;20679;-76
2021/05/24 06:47:41;;;;;;;;;;;;;;;20.45;51.27;100469.30;1729239;80;20255;-76
2021/05/24 06:50:08;;;;;;;;;;;;;;;20.52;51.46;100475.53;1728708;79;20319;-76
2021/05/24 06:52:36;;;;;;;;;;;;;;;20.59;51.65;100485.84;1703148;80;20245;-76
2021/05/24 06:55:08;;;;;;;;;;;;;;;20.66;51.74;100493.40;1725847;80;20230;-76
2021/05/24 06:57:34;;;;;;;;;;;;;;;20.72;51.51;100497.14;1701989;81;20186;-75
2021/05/24 07:00:00;;;;;;;;;;;;;;;20.76;51.29;100488.30;1722408;79;20245;-76
2021/05/24 07:02:26;;;;;;;;;;;;;;;20.77;50.92;100464.09;1727060;79;20218;-77
2021/05/24 07:04:53;;;;;;;;;;;;;;;20.64;51.07;100472.92;1720231;79;20712;-77
2021/05/24 07:07:19;;;;;;;;;;;;;;;20.59;51.25;100483.66;1725442;81;20236;-75
2021/05/24 07:09:46;;;;;;;;;;;;;;;20.57;51.47;100483.03;1699393;81;20270;-74
2021/05/24 07:12:13;;;;;;;;;;;;;;;20.58;51.43;100485.55;1720966;79;20208;-77
2021/05/24 07:14:45;;;;;;;;;;;;;;;20.94;50.68;100488.86;1698844;80;20303;-76
2021/05/24 07:17:10;;;;;;;;;;;;;;;20.75;51.14;100480.34;1721744;80;20570;-76
2021/05/24 07:19:37;;;;;;;;;;;;;;;20.66;51.56;100479.80;1700996;80;20199;-77
2021/05/24 07:22:03;;;;;;;;;;;;;;;20.61;51.43;100482.36;1726805;80;20159;-76
2021/05/24 07:24:37;;;;;;;;;;;;;;;20.55;51.45;100472.38;1698198;80;20717;-75
2021/05/24 07:27:06;;;;;;;;;;;;;;;20.53;51.64;100474.50;1727294;79;20757;-76
2021/05/24 07:29:32;;;;;;;;;;;;;;;20.51;51.82;100468.44;1697337;81;20233;-75
2021/05/24 07:31:58;;;;;;;;;;;;;;;20.47;51.89;100469.90;1721414;80;20669;-75
2021/05/24 07:34:24;;;;;;;;;;;;;;;20.47;51.98;100478.92;1725298;80;20209;-78
2021/05/24 07:36:51;;;;;;;;;;;;;;;20.45;52.04;100488.34;1731066;81;20213;-74
2021/05/24 07:39:19;;;;;;;;;;;;;;;20.43;52.03;100494.52;1728558;80;20212;-78
2021/05/24 07:41:46;;;;;;;;;;;;;;;20.42;52.10;100490.14;1727716;80;20198;-78
2021/05/24 07:44:13;;;;;;;;;;;;;;;20.41;52.24;100487.13;1732807;80;20243;-77
2021/05/24 07:46:40;;;;;;;;;;;;;;;20.40;52.33;100469.14;1730248;79;20188;-76
2021/05/24 07:49:07;;;;;;;;;;;;;;;20.32;52.39;100466.69;1731875;81;20197;-76
2021/05/24 07:51:32;;;;;;;;;;;;;;;20.25;52.55;100461.29;1728125;81;20673;-76
2021/05/24 07:53:59;;;;;;;;;;;;;;;20.19;52.81;100458.94;1723419;81;20295;-75
2021/05/24 07:56:25;;;;;;;;;;;;;;;20.20;53.04;100472.00;1724901;81;20162;-77
2021/05/24 07:58:51;;;;;;;;;;;;;;;20.22;53.10;100468.55;1720535;80;20225;-76
2021/05/24 08:01:18;;;;;;;;;;;;;;;20.21;53.21;100471.80;1726218;79;20204;-76
2021/05/24 08:03:44;;;;;;;;;;;;;;;20.19;53.35;100464.37;1732614;79;20156;-77
2021/05/24 08:06:14;;;;;;;;;;;;;;;20.20;53.33;100464.67;1725015;79;21139;-76
2021/05/24 08:08:41;;;;;;;;;;;;;;;20.22;53.32;100468.55;1723995;80;20234;-76
2021/05/24 08:11:14;;;;;;;;;;;;;;;20.20;53.25;100467.39;1721271;80;20588;-76
2021/05/24 08:13:41;;;;;;;;;;;;;;;20.18;53.19;100473.59;1724832;79;20678;-76
2021/05/24 08:16:10;;;;;;;;;;;;;;;20.21;53.13;100469.08;1724164;79;20266;-77
2021/05/24 08:18:40;;;;;;;;;;;;;;;20.19;53.05;100471.70;1698806;81;20599;-76
2021/05/24 08:21:07;;;;;;;;;;;;;;;20.16;53.00;100474.33;1718002;80;20230;-76
2021/05/24 08:23:35;;;;;;;;;;;;;;;20.12;53.07;100480.42;1717906;80;20444;-76
2021/05/24 08:26:01;;;;;;;;;;;;;;;20.08;53.15;100484.66;1729930;80;20258;-75
2021/05/24 08:28:28;;;;;;;;;;;;;;;20.03;53.09;100483.97;1720606;80;20324;-76
2021/05/24 08:30:54;;;;;;;;;;;;;;;20.00;53.21;100478.95;1722224;80;20192;-75
2021/05/24 08:33:30;;;;;;;;;;;;;;;20.00;53.24;100487.11;1720893;79;20249;-75
2021/05/24 08:35:53;;;;;;;;;;;;;;;19.98;53.28;100491.92;1698808;81;20274;-76
2021/05/24 08:38:20;;;;;;;;;;;;;;;20.03;53.42;100503.00;1699454;80;20233;-75
2021/05/24 08:40:47;;;;;;;;;;;;;;;20.00;53.54;100491.19;1724280;80;20253;-76
2021/05/24 08:43:15;;;;;;;;;;;;;;;20.06;53.58;100489.47;1723409;80;20289;-76
2021/05/24 08:45:42;;;;;;;;;;;;;;;20.07;53.64;100502.01;1725222;80;20142;-75
2021/05/24 08:48:09;;;;;;;;;;;;;;;20.07;53.65;100496.04;1701496;80;20162;-75
2021/05/24 08:50:35;;;;;;;;;;;;;;;20.08;53.74;100508.61;1724439;80;20777;-75
2021/05/24 08:53:05;;;;;;;;;;;;;;;20.08;53.81;100500.45;1728936;79;20254;-76
2021/05/24 08:55:31;;;;;;;;;;;;;;;20.09;53.85;100504.83;1728972;80;20542;-75
2021/05/24 08:57:57;;;;;;;;;;;;;;;20.08;53.87;100508.61;1695560;80;20318;-75
2021/05/24 09:00:23;;;;;;;;;;;;;;;20.09;53.88;100501.28;1724093;80;20209;-75
2021/05/24 09:02:52;;;;;;;;;;;;;;;20.07;53.92;100496.57;1716992;80;20262;-75
2021/05/24 09:05:19;;;;;;;;;;;;;;;20.05;54.01;100506.31;1725228;80;20221;-75
2021/05/24 09:07:51;;;;;;;;;;;;;;;20.07;53.98;100502.84;1724700;80;20644;-74
2021/05/24 09:10:24;;;;;;;;;;;;;;;20.09;53.93;100502.64;1698688;81;20338;-76
2021/05/24 09:12:50;;;;;;;;;;;;;;;20.10;53.96;100496.97;1722763;81;20303;-74
2021/05/24 09:15:17;;;;;;;;;;;;;;;20.14;53.92;100505.53;1726208;80;20290;-74
2021/05/24 09:17:50;;;;;;;;;;;;;;;20.13;53.85;100510.14;1723860;80;20564;-77
2021/05/24 09:20:26;;;;;;;;;;;;;;;20.15;53.77;100516.70;1748403;80;20181;-75
2021/05/24 09:23:07;;;;;;;;;;;;;;;20.17;53.73;100511.37;1737700;80;20235;-75
2021/05/24 09:25:51;;;;;;;;;;;;;;;20.31;53.26;100514.83;1737893;80;20177;-76
2021/05/24 09:28:34;;;;;;;;;;;;;;;20.26;53.23;100525.54;1736799;80;20233;-77
2021/05/24 09:31:14;;;;;;;;;;;;;;;20.16;53.51;100526.00;1736419;80;20231;-76
2021/05/24 09:33:42;;;;;;;;;;;;;;;20.12;53.54;100526.66;1747779;80;20189;-75
2021/05/24 09:36:08;;;;;;;;;;;;;;;20.11;53.62;100536.70;1744201;79;20217;-74
2021/05/24 09:38:47;;;;;;;;;;;;;;;20.17;53.50;100535.84;1750756;79;20251;-75
2021/05/24 09:41:10;;;;;;;;;;;;;;;20.48;52.81;100537.75;1726907;81;20740;-74
2021/05/24 09:43:41;;;;;;;;;;;;;;;20.25;53.12;100538.81;1730168;80;20236;-74
2021/05/24 09:46:23;;;;;;;;;;;;;;;20.13;53.31;100541.41;1730506;80;20226;-75
2021/05/24 09:48:51;;;;;;;;;;;;;;;20.62;52.34;100549.86;1727203;80;20228;-75
2021/05/24 09:51:19;;;;;;;;;;;;;;;20.70;52.13;100542.26;1730066;80;20966;-76
2021/05/24 09:53:55;;;;;;;;;;;;;;;20.27;53.03;100549.79;1727651;80;20204;-76
2021/05/24 09:56:22;;;;;;;;;;;;;;;20.20;53.20;100546.27;1702085;81;20269;-75
2021/05/24 09:59:06;;;;;;;;;;;;;;;20.18;53.25;100548.39;1729495;80;20162;-76
2021/05/24 10:01:39;;;;;;;;;;;;;;;20.16;53.26;100545.03;1706940;80;20191;-77
2021/05/24 10:04:05;;;;;;;;;;;;;;;20.34;53.00;100551.63;1727127;80;20802;-76
2021/05/24 10:06:31;;;;;;;;;;;;;;;20.21;53.27;100543.88;1726503;80;21011;-76
2021/05/24 10:08:59;;;;;;;;;;;;;;;20.22;53.23;100555.59;1723612;80;20198;-76
2021/05/24 10:11:26;;;;;;;;;;;;;;;20.22;53.21;100546.06;1726057;80;20215;-76
2021/05/24 10:13:52;;;;;;;;;;;;;;;20.21;53.14;100561.56;1723709;80;20637;-77
2021/05/24 10:16:19;;;;;;;;;;;;;;;20.21;53.06;100556.12;1725768;80;20241;-76
2021/05/24 10:18:45;;;;;;;;;;;;;;;20.21;53.15;100564.28;1727172;80;20197;-77
2021/05/24 10:21:11;;;;;;;;;;;;;;;20.21;53.12;100566.13;1725627;80;20871;-77
2021/05/24 10:23:37;;;;;;;;;;;;;;;20.22;53.00;100568.66;1725099;80;20212;-75
2021/05/24 10:26:05;;;;;;;;;;;;;;;20.40;52.45;100568.44;1728401;80;20269;-74
2021/05/24 10:28:32;;;;;;;;;;;;;;;20.25;52.77;100585.87;1701533;80;20179;-76
2021/05/24 10:30:58;;;;;;;;;;;;;;;20.22;52.78;100581.42;1728279;81;20229;-76
2021/05/24 10:33:39;;;;;;;;;;;;;;;20.50;52.08;100594.66;1726893;80;20376;-77
2021/05/24 10:36:23;;;;;;;;;;;;;;;20.31;52.47;100592.88;1730502;80;20214;-76
2021/05/24 10:39:22;;;;;;;;;;;;;;;20.24;52.71;100591.02;1730928;80;20221;-75
2021/05/24 10:42:05;;;;;;;;;;;;;;;20.24;52.55;100599.17;1727238;80;20735;-76
2021/05/24 10:44:40;;;;;;;;;;;;;;;20.27;52.44;100589.77;1727482;80;20210;-77
2021/05/24 10:47:26;;;;;;;;;;;;;;;20.35;52.07;100600.39;1728299;80;20552;-75
2021/05/24 10:50:04;;;;;;;;;;;;;;;20.10;52.70;100597.59;1728731;80;20617;-75
2021/05/24 10:52:34;;;;;;;;;;;;;;;20.23;52.58;100608.39;1729689;80;20187;-76
2021/05/24 10:55:27;;;;;;;;;;;;;;;20.08;52.76;100607.03;1702091;81;20266;-75
2021/05/24 10:57:57;;;;;;;;;;;;;;;20.02;52.92;100603.27;1720741;80;20241;-77
2021/05/24 11:00:25;;;;;;;;;;;;;;;20.03;52.99;100604.97;1732663;80;20204;-76
2021/05/24 11:02:57;;;;;;;;;;;;;;;20.04;53.08;100605.80;1729607;80;20173;-76
2021/05/24 11:05:30;;;;;;;;;;;;;;;20.04;53.14;100610.70;1730558;80;20217;-75
2021/05/24 11:08:09;;;;;;;;;;;;;;;20.06;53.13;100614.55;1727656;80;20997;-75
2021/05/24 11:10:46;;;;;;;;;;;;;;;20.23;52.60;100627.44;1667700;81;20232;-74
2021/05/24 11:13:17;;;;;;;;;;;;;;;20.09;52.87;100623.12;1730511;80;20187;-75
2021/05/24 11:15:48;;;;;;;;;;;;;;;20.07;52.88;100620.30;1731352;80;20291;-77
2021/05/24 11:18:23;;;;;;;;;;;;;;;20.04;52.93;100622.11;1729105;80;20567;-75
2021/05/24 11:21:04;;;;;;;;;;;;;;;20.04;53.07;100625.66;1703118;81;20197;-74
2021/05/24 11:29:08;;;;;;;;;;;;;;;20.05;53.00;100631.92;1728717;80;20264;-75
2021/05/24 11:31:39;;;;;;;;;;;;;;;20.05;53.02;100636.84;1729922;80;20194;-72
2021/05/24 11:34:09;;;;;;;;;;;;;;;20.06;53.01;100639.03;1731019;80;20217;-73
2021/05/24 11:36:40;;;;;;;;;;;;;;;20.09;53.04;100648.95;1727849;80;20192;-72
2021/05/24 11:39:12;;;;;;;;;;;;;;;20.09;52.80;100650.31;1732537;80;20260;-73
2021/05/24 11:41:58;;;;;;;;;;;;;;;20.09;52.76;100646.77;1731129;80;20213;-74
2021/05/24 11:44:28;;;;;;;;;;;;;;;20.07;52.71;100658.36;1729465;80;20241;-74
2021/05/24 11:47:06;;;;;;;;;;;;;;;20.07;52.72;100661.91;1727304;81;20676;-74
2021/05/24 11:49:50;;;;;;;;;;;;;;;20.07;52.53;100664.64;1727323;80;20327;-75
2021/05/24 11:52:24;;;;;;;;;;;;;;;20.04;52.37;100650.13;1728900;80;20214;-74
2021/05/24 11:54:52;;;;;;;;;;;;;;;19.99;52.45;100664.37;1732046;80;20193;-74
2021/05/24 11:57:20;;;;;;;;;;;;;;;19.95;52.48;100660.41;1731109;80;20573;-75
2021/05/24 11:59:46;;;;;;;;;;;;;;;19.96;52.55;100666.68;1729683;80;20200;-76
2021/05/24 12:02:13;;;;;;;;;;;;;;;19.97;52.60;100676.50;1730166;80;20241;-75
2021/05/24 12:04:42;;;;;;;;;;;;;;;19.96;52.55;100665.32;1703435;81;20273;-75
2021/05/24 12:07:13;;;;;;;;;;;;;;;19.95;52.41;100686.77;1723827;80;20236;-75
2021/05/24 12:09:49;;;;;;;;;;;;;;;19.95;52.46;100675.89;1719794;80;20349;-75
2021/05/24 12:12:20;;;;;;;;;;;;;;;19.96;52.24;100685.71;1724513;81;20448;-76
2021/05/24 12:14:49;;;;;;;;;;;;;;;19.94;52.23;100698.17;1729516;81;20336;-76
2021/05/24 12:17:25;;;;;;;;;;;;;;;19.94;52.27;100694.09;1722366;80;20260;-78
2021/05/24 12:19:57;;;;;;;;;;;;;;;19.95;52.34;100693.56;1721903;81;20197;-77
2021/05/24 12:22:28;;;;;;;;;;;;;;;20.16;51.78;100706.02;1751189;80;20605;-78
2021/05/24 12:24:55;;;;;;;;;;;;;;;20.20;51.92;100718.98;1745997;80;20185;-76
2021/05/24 12:27:24;;;;;;;;;;;;;;;20.18;51.53;100712.93;1755347;80;20203;-76
2021/05/24 12:30:13;;;;;;;;;;;;;;;19.96;52.12;100705.58;1747803;80;20587;-75
2021/05/24 12:32:41;;;;;;;;;;;;;;;19.95;52.31;100707.16;1744252;80;20668;-77
2021/05/24 12:35:09;;;;;;;;;;;;;;;19.93;52.23;100699.20;1752156;80;20227;-74
2021/05/24 12:37:36;;;;;;;;;;;;;;;19.93;52.26;100716.03;1744663;80;20515;-75
2021/05/24 12:40:07;;;;;;;;;;;;;;;19.95;52.08;100722.11;1745248;80;20571;-77
2021/05/24 12:42:33;;;;;;;;;;;;;;;19.95;52.02;100716.67;1727056;80;20231;-75
2021/05/24 12:45:01;;;;;;;;;;;;;;;19.92;51.86;100719.28;1756265;80;20269;-76
2021/05/24 12:47:27;;;;;;;;;;;;;;;19.92;51.83;100725.25;1746265;80;20200;-77